sensor_id;sensor_type;location;lat;lon;timestamp;temperature;humidity
22139;DHT22;25815;52.582;13.408;2023-11-19T00:02:07;4.50;99.90
22139;DHT22;25815;52.582;13.408;2023-11-19T00:04:36;4.50;99.90
22139;DHT22;25815;52.582;13.408;2023-11-19T00:07:04;4.50;99.90
22139;DHT22;25815;52.582;13.408;2023-11-19T00:09:32;4.50;99.90
22139;DHT22;25815;52.582;13.408;2023-11-19T00:11:57;4.50;99.90
22139;DHT22;25815;52.582;13.408;2023-11-19T00:14:23;4.40;99.90
22139;DHT22;25815;52.582;13.408;2023-11-19T00:16:50;4.40;99.90
22139;DHT22;25815;52.582;13.408;2023-11-19T00:19:16;4.40;99.90
22139;DHT22;25815;52.582;13.408;2023-11-19T00:21:42;4.40;99.90
22139;DHT22;25815;52.582;13.408;2023-11-19T00:24:07;4.30;99.90
22139;DHT22;25815;52.582;13.408;2023-11-19T00:26:33;4.30;99.90
22139;DHT22;25815;52.582;13.408;2023-11-19T00:28:59;4.30;99.90
22139;DHT22;25815;52.582;13.408;2023-11-19T00:31:25;4.30;99.90
22139;DHT22;25815;52.582;13.408;2023-11-19T00:33:53;4.30;99.90
22139;DHT22;25815;52.582;13.408;2023-11-19T00:36:18;4.30;99.90
22139;DHT22;25815;52.582;13.408;2023-11-19T00:38:44;4.30;99.90
22139;DHT22;25815;52.582;13.408;2023-11-19T00:41:09;4.30;99.90
22139;DHT22;25815;52.582;13.408;2023-11-19T00:43:35;4.30;99.90
22139;DHT22;25815;52.582;13.408;2023-11-19T00:46:01;4.30;99.90
22139;DHT22;25815;52.582;13.408;2023-11-19T00:48:28;4.40;99.90
22139;DHT22;25815;52.582;13.408;2023-11-19T00:50:53;4.30;99.90
22139;DHT22;25815;52.582;13.408;2023-11-19T00:53:19;4.40;99.90
22139;DHT22;25815;52.582;13.408;2023-11-19T00:55:44;4.40;99.90
22139;DHT22;25815;52.582;13.408;2023-11-19T00:58:10;4.40;99.90
22139;DHT22;25815;52.582;13.408;2023-11-19T01:00:35;4.40;99.90
22139;DHT22;25815;52.582;13.408;2023-11-19T01:03:01;4.40;99.90
22139;DHT22;25815;52.582;13.408;2023-11-19T01:05:26;4.40;99.90
22139;DHT22;25815;52.582;13.408;2023-11-19T01:07:53;4.40;99.90
22139;DHT22;25815;52.582;13.408;2023-11-19T01:10:19;4.40;99.90
22139;DHT22;25815;52.582;13.408;2023-11-19T01:12:45;4.40;99.90
22139;DHT22;25815;52.582;13.408;2023-11-19T01:15:11;4.40;99.90
22139;DHT22;25815;52.582;13.408;2023-11-19T01:17:37;4.40;99.90
22139;DHT22;25815;52.582;13.408;2023-11-19T01:20:03;4.40;99.90
22139;DHT22;25815;52.582;13.408;2023-11-19T01:22:31;4.40;99.90
22139;DHT22;25815;52.582;13.408;2023-11-19T01:24:57;4.50;99.90
22139;DHT22;25815;52.582;13.408;2023-11-19T01:27:23;4.50;99.90
22139;DHT22;25815;52.582;13.408;2023-11-19T01:29:49;4.50;99.90
22139;DHT22;25815;52.582;13.408;2023-11-19T01:32:14;4.50;99.90
22139;DHT22;25815;52.582;13.408;2023-11-19T01:34:40;4.50;99.90
22139;DHT22;25815;52.582;13.408;2023-11-19T01:37:06;4.60;99.90
22139;DHT22;25815;52.582;13.408;2023-11-19T01:39:31;4.60;99.90
22139;DHT22;25815;52.582;13.408;2023-11-19T01:41:57;4.60;99.90
22139;DHT22;25815;52.582;13.408;2023-11-19T01:44:22;4.70;99.90
22139;DHT22;25815;52.582;13.408;2023-11-19T01:46:48;4.60;99.90
22139;DHT22;25815;52.582;13.408;2023-11-19T01:49:14;4.70;99.90
22139;DHT22;25815;52.582;13.408;2023-11-19T01:51:40;4.70;99.90
22139;DHT22;25815;52.582;13.408;2023-11-19T01:54:06;4.70;99.90
22139;DHT22;25815;52.582;13.408;2023-11-19T01:56:32;4.70;99.90
22139;DHT22;25815;52.582;13.408;2023-11-19T01:58:58;4.70;99.90
22139;DHT22;25815;52.582;13.408;2023-11-19T02:01:24;4.80;99.90
22139;DHT22;25815;52.582;13.408;2023-11-19T02:03:50;4.80;99.90
22139;DHT22;25815;52.582;13.408;2023-11-19T02:06:16;4.80;99.90
22139;DHT22;25815;52.582;13.408;2023-11-19T02:08:42;4.80;99.90
22139;DHT22;25815;52.582;13.408;2023-11-19T02:11:07;4.70;99.90
22139;DHT22;25815;52.582;13.408;2023-11-19T02:13:33;4.80;99.90
22139;DHT22;25815;52.582;13.408;2023-11-19T02:16:01;4.80;99.90
22139;DHT22;25815;52.582;13.408;2023-11-19T02:18:27;4.70;99.90
22139;DHT22;25815;52.582;13.408;2023-11-19T02:20:53;4.70;99.90
22139;DHT22;25815;52.582;13.408;2023-11-19T02:23:19;4.80;99.90
22139;DHT22;25815;52.582;13.408;2023-11-19T02:28:23;4.70;99.90
22139;DHT22;25815;52.582;13.408;2023-11-19T02:30:48;4.70;99.90
22139;DHT22;25815;52.582;13.408;2023-11-19T02:33:14;4.80;99.90
22139;DHT22;25815;52.582;13.408;2023-11-19T02:35:40;4.80;99.90
22139;DHT22;25815;52.582;13.408;2023-11-19T02:38:06;4.80;99.90
22139;DHT22;25815;52.582;13.408;2023-11-19T02:40:32;4.80;99.90
22139;DHT22;25815;52.582;13.408;2023-11-19T02:42:58;4.80;99.90
22139;DHT22;25815;52.582;13.408;2023-11-19T02:45:24;4.80;99.90
22139;DHT22;25815;52.582;13.408;2023-11-19T02:47:50;4.90;99.90
22139;DHT22;25815;52.582;13.408;2023-11-19T02:50:17;4.90;99.90
22139;DHT22;25815;52.582;13.408;2023-11-19T02:52:43;4.90;99.90
22139;DHT22;25815;52.582;13.408;2023-11-19T02:55:10;4.90;99.90
22139;DHT22;25815;52.582;13.408;2023-11-19T02:57:41;4.90;99.90
22139;DHT22;25815;52.582;13.408;2023-11-19T03:00:16;4.90;99.90
22139;DHT22;25815;52.582;13.408;2023-11-19T03:02:42;4.90;99.90
22139;DHT22;25815;52.582;13.408;2023-11-19T03:05:12;5.00;99.90
22139;DHT22;25815;52.582;13.408;2023-11-19T03:07:43;4.90;99.90
22139;DHT22;25815;52.582;13.408;2023-11-19T03:10:11;5.00;99.90
22139;DHT22;25815;52.582;13.408;2023-11-19T03:12:40;5.00;99.90
22139;DHT22;25815;52.582;13.408;2023-11-19T03:15:06;5.00;99.90
22139;DHT22;25815;52.582;13.408;2023-11-19T03:17:32;5.10;99.90
22139;DHT22;25815;52.582;13.408;2023-11-19T03:19:58;5.10;99.90
22139;DHT22;25815;52.582;13.408;2023-11-19T03:22:23;5.20;99.90
22139;DHT22;25815;52.582;13.408;2023-11-19T03:24:52;5.10;99.90
22139;DHT22;25815;52.582;13.408;2023-11-19T03:27:18;5.10;99.90
22139;DHT22;25815;52.582;13.408;2023-11-19T03:29:43;5.10;99.90
22139;DHT22;25815;52.582;13.408;2023-11-19T03:32:09;5.10;99.90
22139;DHT22;25815;52.582;13.408;2023-11-19T03:34:34;5.10;99.90
22139;DHT22;25815;52.582;13.408;2023-11-19T03:36:59;5.10;99.90
22139;DHT22;25815;52.582;13.408;2023-11-19T03:39:25;5.10;99.90
22139;DHT22;25815;52.582;13.408;2023-11-19T03:41:52;5.00;99.90
22139;DHT22;25815;52.582;13.408;2023-11-19T03:44:17;4.90;99.90
22139;DHT22;25815;52.582;13.408;2023-11-19T03:46:44;4.80;99.90
22139;DHT22;25815;52.582;13.408;2023-11-19T03:49:09;4.80;99.90
22139;DHT22;25815;52.582;13.408;2023-11-19T03:51:35;4.70;99.90
22139;DHT22;25815;52.582;13.408;2023-11-19T03:54:00;4.60;99.90
22139;DHT22;25815;52.582;13.408;2023-11-19T03:56:26;4.50;99.90
22139;DHT22;25815;52.582;13.408;2023-11-19T03:58:52;4.40;99.90
22139;DHT22;25815;52.582;13.408;2023-11-19T04:01:18;4.40;99.90
22139;DHT22;25815;52.582;13.408;2023-11-19T04:03:43;4.30;99.90
22139;DHT22;25815;52.582;13.408;2023-11-19T04:06:09;4.30;99.90
22139;DHT22;25815;52.582;13.408;2023-11-19T04:08:35;4.30;99.90
22139;DHT22;25815;52.582;13.408;2023-11-19T04:11:02;4.30;99.90
22139;DHT22;25815;52.582;13.408;2023-11-19T04:13:28;4.30;99.90
22139;DHT22;25815;52.582;13.408;2023-11-19T04:15:53;4.30;99.90
22139;DHT22;25815;52.582;13.408;2023-11-19T04:18:19;4.20;99.90
22139;DHT22;25815;52.582;13.408;2023-11-19T04:20:44;4.20;99.90
22139;DHT22;25815;52.582;13.408;2023-11-19T04:23:09;4.20;99.90
22139;DHT22;25815;52.582;13.408;2023-11-19T04:25:36;4.20;99.90
22139;DHT22;25815;52.582;13.408;2023-11-19T04:28:02;4.20;99.90
22139;DHT22;25815;52.582;13.408;2023-11-19T04:30:27;4.20;99.90
22139;DHT22;25815;52.582;13.408;2023-11-19T04:32:53;4.20;99.90
22139;DHT22;25815;52.582;13.408;2023-11-19T04:35:18;4.20;99.90
22139;DHT22;25815;52.582;13.408;2023-11-19T04:37:44;4.20;99.90
22139;DHT22;25815;52.582;13.408;2023-11-19T04:40:10;4.20;99.90
22139;DHT22;25815;52.582;13.408;2023-11-19T04:42:37;4.20;99.90
22139;DHT22;25815;52.582;13.408;2023-11-19T04:45:05;4.20;99.90
22139;DHT22;25815;52.582;13.408;2023-11-19T04:47:32;4.20;99.90
22139;DHT22;25815;52.582;13.408;2023-11-19T04:50:00;4.20;99.90
22139;DHT22;25815;52.582;13.408;2023-11-19T04:52:25;4.20;99.90
22139;DHT22;25815;52.582;13.408;2023-11-19T04:54:51;4.20;99.90
22139;DHT22;25815;52.582;13.408;2023-11-19T04:57:16;4.20;99.90
22139;DHT22;25815;52.582;13.408;2023-11-19T04:59:42;4.20;99.90
22139;DHT22;25815;52.582;13.408;2023-11-19T05:02:08;4.20;99.90
22139;DHT22;25815;52.582;13.408;2023-11-19T05:04:33;4.20;99.90
22139;DHT22;25815;52.582;13.408;2023-11-19T05:06:59;4.20;99.90
22139;DHT22;25815;52.582;13.408;2023-11-19T05:09:24;4.20;99.90
22139;DHT22;25815;52.582;13.408;2023-11-19T05:11:50;4.20;99.90
22139;DHT22;25815;52.582;13.408;2023-11-19T05:14:16;4.20;99.90
22139;DHT22;25815;52.582;13.408;2023-11-19T05:16:41;4.20;99.90
22139;DHT22;25815;52.582;13.408;2023-11-19T05:19:08;4.20;99.90
22139;DHT22;25815;52.582;13.408;2023-11-19T05:21:34;4.20;99.90
22139;DHT22;25815;52.582;13.408;2023-11-19T05:23:59;4.20;99.90
22139;DHT22;25815;52.582;13.408;2023-11-19T05:26:25;4.20;99.90
22139;DHT22;25815;52.582;13.408;2023-11-19T05:28:51;4.20;99.90
22139;DHT22;25815;52.582;13.408;2023-11-19T05:31:17;4.20;99.90
22139;DHT22;25815;52.582;13.408;2023-11-19T05:33:43;4.20;99.90
22139;DHT22;25815;52.582;13.408;2023-11-19T05:36:11;4.20;99.90
22139;DHT22;25815;52.582;13.408;2023-11-19T05:38:38;4.20;99.90
22139;DHT22;25815;52.582;13.408;2023-11-19T05:41:03;4.20;99.90
22139;DHT22;25815;52.582;13.408;2023-11-19T05:43:30;4.20;99.90
22139;DHT22;25815;52.582;13.408;2023-11-19T05:45:55;4.30;99.90
22139;DHT22;25815;52.582;13.408;2023-11-19T05:48:21;4.30;99.90
22139;DHT22;25815;52.582;13.408;2023-11-19T05:50:46;4.40;99.90
22139;DHT22;25815;52.582;13.408;2023-11-19T05:53:14;4.40;99.90
22139;DHT22;25815;52.582;13.408;2023-11-19T05:55:40;4.40;99.90
22139;DHT22;25815;52.582;13.408;2023-11-19T05:58:14;4.50;99.90
22139;DHT22;25815;52.582;13.408;2023-11-19T06:00:39;4.40;99.90
22139;DHT22;25815;52.582;13.408;2023-11-19T06:03:05;4.50;99.90
22139;DHT22;25815;52.582;13.408;2023-11-19T06:05:32;4.40;99.90
22139;DHT22;25815;52.582;13.408;2023-11-19T06:07:57;4.50;99.90
22139;DHT22;25815;52.582;13.408;2023-11-19T06:10:23;4.50;99.90
22139;DHT22;25815;52.582;13.408;2023-11-19T06:12:54;4.50;99.90
22139;DHT22;25815;52.582;13.408;2023-11-19T06:15:22;4.50;99.90
22139;DHT22;25815;52.582;13.408;2023-11-19T06:17:47;4.50;99.90
22139;DHT22;25815;52.582;13.408;2023-11-19T06:20:13;4.50;99.90
22139;DHT22;25815;52.582;13.408;2023-11-19T06:25:07;4.60;99.90
22139;DHT22;25815;52.582;13.408;2023-11-19T06:27:33;4.50;99.90
22139;DHT22;25815;52.582;13.408;2023-11-19T06:29:58;4.60;99.90
22139;DHT22;25815;52.582;13.408;2023-11-19T06:32:24;4.60;99.90
22139;DHT22;25815;52.582;13.408;2023-11-19T06:34:49;4.60;99.90
22139;DHT22;25815;52.582;13.408;2023-11-19T06:37:15;4.60;99.90
22139;DHT22;25815;52.582;13.408;2023-11-19T06:39:40;4.70;99.90
22139;DHT22;25815;52.582;13.408;2023-11-19T06:42:06;4.70;99.90
22139;DHT22;25815;52.582;13.408;2023-11-19T06:44:32;4.70;99.90
22139;DHT22;25815;52.582;13.408;2023-11-19T06:46:58;4.70;99.90
22139;DHT22;25815;52.582;13.408;2023-11-19T06:49:23;4.70;99.90
22139;DHT22;25815;52.582;13.408;2023-11-19T06:51:49;4.80;99.90
22139;DHT22;25815;52.582;13.408;2023-11-19T06:54:15;4.70;99.90
22139;DHT22;25815;52.582;13.408;2023-11-19T06:56:41;4.70;99.90
22139;DHT22;25815;52.582;13.408;2023-11-19T06:59:07;4.70;99.90
22139;DHT22;25815;52.582;13.408;2023-11-19T07:01:35;4.80;99.90
22139;DHT22;25815;52.582;13.408;2023-11-19T07:04:01;4.80;99.90
22139;DHT22;25815;52.582;13.408;2023-11-19T07:06:33;4.70;99.90
22139;DHT22;25815;52.582;13.408;2023-11-19T07:08:58;5.40;99.90
22139;DHT22;25815;52.582;13.408;2023-11-19T07:11:24;4.80;99.90
22139;DHT22;25815;52.582;13.408;2023-11-19T07:13:49;4.90;99.90
22139;DHT22;25815;52.582;13.408;2023-11-19T07:16:15;4.90;99.90
22139;DHT22;25815;52.582;13.408;2023-11-19T07:18:40;4.90;99.90
22139;DHT22;25815;52.582;13.408;2023-11-19T07:21:09;4.90;99.90
22139;DHT22;25815;52.582;13.408;2023-11-19T07:23:35;4.90;99.90
22139;DHT22;25815;52.582;13.408;2023-11-19T07:26:01;4.90;99.90
22139;DHT22;25815;52.582;13.408;2023-11-19T07:28:26;4.90;99.90
22139;DHT22;25815;52.582;13.408;2023-11-19T07:30:54;5.00;99.90
22139;DHT22;25815;52.582;13.408;2023-11-19T07:33:21;5.10;99.90
22139;DHT22;25815;52.582;13.408;2023-11-19T07:35:46;5.00;99.90
22139;DHT22;25815;52.582;13.408;2023-11-19T07:38:12;5.10;99.90
22139;DHT22;25815;52.582;13.408;2023-11-19T07:40:38;5.10;99.90
22139;DHT22;25815;52.582;13.408;2023-11-19T07:43:03;5.10;99.90
22139;DHT22;25815;52.582;13.408;2023-11-19T07:45:29;5.10;99.90
22139;DHT22;25815;52.582;13.408;2023-11-19T07:47:54;5.10;99.90
22139;DHT22;25815;52.582;13.408;2023-11-19T07:50:20;5.20;99.90
22139;DHT22;25815;52.582;13.408;2023-11-19T07:52:45;5.20;99.90
22139;DHT22;25815;52.582;13.408;2023-11-19T07:55:11;5.20;99.90
22139;DHT22;25815;52.582;13.408;2023-11-19T07:57:37;5.20;99.90
22139;DHT22;25815;52.582;13.408;2023-11-19T08:00:03;5.30;99.90
22139;DHT22;25815;52.582;13.408;2023-11-19T08:02:28;5.30;99.90
22139;DHT22;25815;52.582;13.408;2023-11-19T08:04:54;5.30;99.90
22139;DHT22;25815;52.582;13.408;2023-11-19T08:07:20;5.30;99.90
22139;DHT22;25815;52.582;13.408;2023-11-19T08:09:46;5.40;99.90
22139;DHT22;25815;52.582;13.408;2023-11-19T08:12:12;5.40;99.90
22139;DHT22;25815;52.582;13.408;2023-11-19T08:14:39;5.50;99.90
22139;DHT22;25815;52.582;13.408;2023-11-19T08:17:05;5.50;99.90
22139;DHT22;25815;52.582;13.408;2023-11-19T08:19:30;5.50;99.90
22139;DHT22;25815;52.582;13.408;2023-11-19T08:21:56;5.60;99.90
22139;DHT22;25815;52.582;13.408;2023-11-19T08:24:22;5.60;99.90
22139;DHT22;25815;52.582;13.408;2023-11-19T08:26:48;5.60;99.90
22139;DHT22;25815;52.582;13.408;2023-11-19T08:29:13;5.70;99.90
22139;DHT22;25815;52.582;13.408;2023-11-19T08:31:39;5.70;99.90
22139;DHT22;25815;52.582;13.408;2023-11-19T08:34:05;5.70;99.90
22139;DHT22;25815;52.582;13.408;2023-11-19T08:36:34;5.70;99.90
22139;DHT22;25815;52.582;13.408;2023-11-19T08:38:59;5.80;99.90
22139;DHT22;25815;52.582;13.408;2023-11-19T08:41:25;5.80;99.90
22139;DHT22;25815;52.582;13.408;2023-11-19T08:43:50;5.80;99.90
22139;DHT22;25815;52.582;13.408;2023-11-19T08:46:16;5.80;99.90
22139;DHT22;25815;52.582;13.408;2023-11-19T08:48:42;5.90;99.90
22139;DHT22;25815;52.582;13.408;2023-11-19T08:51:08;5.90;99.90
22139;DHT22;25815;52.582;13.408;2023-11-19T08:53:33;5.90;99.90
22139;DHT22;25815;52.582;13.408;2023-11-19T08:55:59;6.00;99.90
22139;DHT22;25815;52.582;13.408;2023-11-19T08:58:25;6.10;99.90
22139;DHT22;25815;52.582;13.408;2023-11-19T09:00:51;6.20;99.90
22139;DHT22;25815;52.582;13.408;2023-11-19T09:03:16;6.30;99.90
22139;DHT22;25815;52.582;13.408;2023-11-19T09:05:42;6.30;99.90
22139;DHT22;25815;52.582;13.408;2023-11-19T09:08:07;6.30;99.90
22139;DHT22;25815;52.582;13.408;2023-11-19T09:10:33;6.40;99.90
22139;DHT22;25815;52.582;13.408;2023-11-19T09:12:59;6.40;99.90
22139;DHT22;25815;52.582;13.408;2023-11-19T09:15:24;6.50;99.90
22139;DHT22;25815;52.582;13.408;2023-11-19T09:17:50;6.60;99.90
22139;DHT22;25815;52.582;13.408;2023-11-19T09:20:15;6.60;99.90
22139;DHT22;25815;52.582;13.408;2023-11-19T09:22:41;6.60;99.90
22139;DHT22;25815;52.582;13.408;2023-11-19T09:25:06;6.70;99.90
22139;DHT22;25815;52.582;13.408;2023-11-19T09:27:32;6.70;99.90
22139;DHT22;25815;52.582;13.408;2023-11-19T09:29:57;6.80;99.90
22139;DHT22;25815;52.582;13.408;2023-11-19T09:32:24;6.90;99.90
22139;DHT22;25815;52.582;13.408;2023-11-19T09:34:50;7.00;99.90
22139;DHT22;25815;52.582;13.408;2023-11-19T09:37:16;7.00;99.90
22139;DHT22;25815;52.582;13.408;2023-11-19T09:39:42;7.10;99.90
22139;DHT22;25815;52.582;13.408;2023-11-19T09:42:11;7.30;99.90
22139;DHT22;25815;52.582;13.408;2023-11-19T09:44:37;7.40;99.90
22139;DHT22;25815;52.582;13.408;2023-11-19T09:47:04;7.50;99.90
22139;DHT22;25815;52.582;13.408;2023-11-19T09:51:55;7.70;99.90
22139;DHT22;25815;52.582;13.408;2023-11-19T09:54:21;7.80;99.90
22139;DHT22;25815;52.582;13.408;2023-11-19T09:56:46;7.90;99.90
22139;DHT22;25815;52.582;13.408;2023-11-19T09:59:13;8.00;99.90
22139;DHT22;25815;52.582;13.408;2023-11-19T10:01:39;8.10;99.90
22139;DHT22;25815;52.582;13.408;2023-11-19T10:04:05;8.20;99.90
22139;DHT22;25815;52.582;13.408;2023-11-19T10:06:31;8.40;99.90
22139;DHT22;25815;52.582;13.408;2023-11-19T10:08:57;8.40;99.90
22139;DHT22;25815;52.582;13.408;2023-11-19T10:11:22;8.40;99.90
22139;DHT22;25815;52.582;13.408;2023-11-19T10:13:48;8.50;99.90
22139;DHT22;25815;52.582;13.408;2023-11-19T10:16:14;8.50;99.90
22139;DHT22;25815;52.582;13.408;2023-11-19T10:18:46;8.60;99.90
22139;DHT22;25815;52.582;13.408;2023-11-19T10:21:17;8.70;99.90
22139;DHT22;25815;52.582;13.408;2023-11-19T10:23:55;8.80;99.90
22139;DHT22;25815;52.582;13.408;2023-11-19T10:26:25;8.80;99.90
22139;DHT22;25815;52.582;13.408;2023-11-19T10:28:51;8.90;99.90
22139;DHT22;25815;52.582;13.408;2023-11-19T10:31:17;9.00;99.90
22139;DHT22;25815;52.582;13.408;2023-11-19T10:33:43;9.00;99.90
22139;DHT22;25815;52.582;13.408;2023-11-19T10:36:10;9.00;99.90
22139;DHT22;25815;52.582;13.408;2023-11-19T10:38:37;9.10;99.90
22139;DHT22;25815;52.582;13.408;2023-11-19T10:41:03;9.20;99.90
22139;DHT22;25815;52.582;13.408;2023-11-19T10:43:29;9.30;99.90
22139;DHT22;25815;52.582;13.408;2023-11-19T10:45:55;9.30;99.90
22139;DHT22;25815;52.582;13.408;2023-11-19T10:48:33;9.40;99.90
22139;DHT22;25815;52.582;13.408;2023-11-19T10:51:00;9.40;99.90
22139;DHT22;25815;52.582;13.408;2023-11-19T10:53:26;9.50;99.90
22139;DHT22;25815;52.582;13.408;2023-11-19T10:55:52;9.50;99.90
22139;DHT22;25815;52.582;13.408;2023-11-19T10:58:21;9.60;99.90
22139;DHT22;25815;52.582;13.408;2023-11-19T11:03:23;9.70;99.90
22139;DHT22;25815;52.582;13.408;2023-11-19T11:05:50;9.80;99.90
22139;DHT22;25815;52.582;13.408;2023-11-19T11:08:17;9.90;99.90
22139;DHT22;25815;52.582;13.408;2023-11-19T11:10:43;10.10;99.90
22139;DHT22;25815;52.582;13.408;2023-11-19T11:13:09;10.10;99.90
22139;DHT22;25815;52.582;13.408;2023-11-19T11:15:35;10.30;99.90
22139;DHT22;25815;52.582;13.408;2023-11-19T11:18:02;10.40;99.90
22139;DHT22;25815;52.582;13.408;2023-11-19T11:20:28;10.50;99.90
22139;DHT22;25815;52.582;13.408;2023-11-19T11:23:01;10.60;99.90
22139;DHT22;25815;52.582;13.408;2023-11-19T11:28:18;10.90;99.90
22139;DHT22;25815;52.582;13.408;2023-11-19T11:38:28;11.30;99.90
22139;DHT22;25815;52.582;13.408;2023-11-19T11:41:27;11.30;99.90
22139;DHT22;25815;52.582;13.408;2023-11-19T11:43:47;11.40;99.90
22139;DHT22;25815;52.582;13.408;2023-11-19T11:49:00;11.60;99.90
22139;DHT22;25815;52.582;13.408;2023-11-19T12:02:18;11.60;99.90
22139;DHT22;25815;52.582;13.408;2023-11-19T12:04:48;11.50;99.90
22139;DHT22;25815;52.582;13.408;2023-11-19T12:07:15;11.50;99.90
22139;DHT22;25815;52.582;13.408;2023-11-19T12:12:11;11.70;99.90
22139;DHT22;25815;52.582;13.408;2023-11-19T12:15:10;11.70;99.90
22139;DHT22;25815;52.582;13.408;2023-11-19T12:19:57;11.70;99.90
22139;DHT22;25815;52.582;13.408;2023-11-19T12:22:24;11.70;99.90
22139;DHT22;25815;52.582;13.408;2023-11-19T12:24:50;11.60;99.90
22139;DHT22;25815;52.582;13.408;2023-11-19T12:27:16;11.70;99.90
22139;DHT22;25815;52.582;13.408;2023-11-19T12:29:43;11.60;99.90
22139;DHT22;25815;52.582;13.408;2023-11-19T12:32:11;11.60;99.90
22139;DHT22;25815;52.582;13.408;2023-11-19T12:34:37;11.60;99.90
22139;DHT22;25815;52.582;13.408;2023-11-19T12:37:03;11.60;99.90
22139;DHT22;25815;52.582;13.408;2023-11-19T12:39:29;11.60;99.90
22139;DHT22;25815;52.582;13.408;2023-11-19T12:41:55;11.60;99.90
22139;DHT22;25815;52.582;13.408;2023-11-19T12:44:20;11.50;99.90
22139;DHT22;25815;52.582;13.408;2023-11-19T12:49:12;10.70;99.90
22139;DHT22;25815;52.582;13.408;2023-11-19T12:51:37;10.60;99.90
22139;DHT22;25815;52.582;13.408;2023-11-19T12:54:03;10.50;99.90
22139;DHT22;25815;52.582;13.408;2023-11-19T12:56:30;10.50;99.90
22139;DHT22;25815;52.582;13.408;2023-11-19T12:58:55;10.40;99.90
22139;DHT22;25815;52.582;13.408;2023-11-19T13:01:21;10.50;99.90
22139;DHT22;25815;52.582;13.408;2023-11-19T13:03:47;10.60;99.90
22139;DHT22;25815;52.582;13.408;2023-11-19T13:06:14;10.50;99.90
22139;DHT22;25815;52.582;13.408;2023-11-19T13:11:06;10.70;99.90
22139;DHT22;25815;52.582;13.408;2023-11-19T13:13:33;10.80;99.90
22139;DHT22;25815;52.582;13.408;2023-11-19T13:16:15;10.80;99.90
22139;DHT22;25815;52.582;13.408;2023-11-19T13:18:40;10.80;99.90
22139;DHT22;25815;52.582;13.408;2023-11-19T13:21:06;10.90;99.90
22139;DHT22;25815;52.582;13.408;2023-11-19T13:23:31;11.00;99.90
22139;DHT22;25815;52.582;13.408;2023-11-19T13:25:57;11.00;99.90
22139;DHT22;25815;52.582;13.408;2023-11-19T13:28:22;11.00;99.90
22139;DHT22;25815;52.582;13.408;2023-11-19T13:30:48;11.00;99.90
22139;DHT22;25815;52.582;13.408;2023-11-19T13:33:13;11.00;99.90
22139;DHT22;25815;52.582;13.408;2023-11-19T13:35:39;11.00;99.90
22139;DHT22;25815;52.582;13.408;2023-11-19T13:38:07;10.90;99.90
22139;DHT22;25815;52.582;13.408;2023-11-19T13:40:34;10.90;99.90
22139;DHT22;25815;52.582;13.408;2023-11-19T13:42:59;11.00;99.90
22139;DHT22;25815;52.582;13.408;2023-11-19T13:45:25;11.00;99.90
22139;DHT22;25815;52.582;13.408;2023-11-19T13:47:50;10.90;99.90
22139;DHT22;25815;52.582;13.408;2023-11-19T13:50:16;10.90;99.90
22139;DHT22;25815;52.582;13.408;2023-11-19T13:52:42;10.90;99.90
22139;DHT22;25815;52.582;13.408;2023-11-19T13:55:10;10.80;99.90
22139;DHT22;25815;52.582;13.408;2023-11-19T13:57:36;10.90;99.90
22139;DHT22;25815;52.582;13.408;2023-11-19T14:00:05;10.80;99.90
22139;DHT22;25815;52.582;13.408;2023-11-19T14:02:41;10.70;99.90
22139;DHT22;25815;52.582;13.408;2023-11-19T14:05:07;10.70;99.90
22139;DHT22;25815;52.582;13.408;2023-11-19T14:07:33;10.70;99.90
22139;DHT22;25815;52.582;13.408;2023-11-19T14:09:59;10.70;99.90
22139;DHT22;25815;52.582;13.408;2023-11-19T14:12:24;10.70;99.90
22139;DHT22;25815;52.582;13.408;2023-11-19T14:14:49;10.70;99.90
22139;DHT22;25815;52.582;13.408;2023-11-19T14:17:15;10.70;99.90
22139;DHT22;25815;52.582;13.408;2023-11-19T14:19:41;10.70;99.90
22139;DHT22;25815;52.582;13.408;2023-11-19T14:22:07;10.70;99.90
22139;DHT22;25815;52.582;13.408;2023-11-19T14:24:33;10.70;99.90
22139;DHT22;25815;52.582;13.408;2023-11-19T14:26:59;10.80;99.90
22139;DHT22;25815;52.582;13.408;2023-11-19T14:29:25;10.80;99.90
22139;DHT22;25815;52.582;13.408;2023-11-19T14:31:55;10.80;99.90
22139;DHT22;25815;52.582;13.408;2023-11-19T14:34:20;10.70;99.90
22139;DHT22;25815;52.582;13.408;2023-11-19T14:36:46;10.70;99.90
22139;DHT22;25815;52.582;13.408;2023-11-19T14:39:12;10.70;99.90
22139;DHT22;25815;52.582;13.408;2023-11-19T14:41:38;10.70;99.90
22139;DHT22;25815;52.582;13.408;2023-11-19T14:44:04;10.60;99.90
22139;DHT22;25815;52.582;13.408;2023-11-19T14:46:29;10.60;99.90
22139;DHT22;25815;52.582;13.408;2023-11-19T14:48:55;10.70;99.90
22139;DHT22;25815;52.582;13.408;2023-11-19T14:51:20;10.70;99.90
22139;DHT22;25815;52.582;13.408;2023-11-19T14:53:46;10.60;99.90
22139;DHT22;25815;52.582;13.408;2023-11-19T14:56:12;10.70;99.90
22139;DHT22;25815;52.582;13.408;2023-11-19T14:58:38;10.70;99.90
22139;DHT22;25815;52.582;13.408;2023-11-19T15:01:04;10.70;99.90
22139;DHT22;25815;52.582;13.408;2023-11-19T15:03:29;10.70;99.90
22139;DHT22;25815;52.582;13.408;2023-11-19T15:05:56;10.70;99.90
22139;DHT22;25815;52.582;13.408;2023-11-19T15:08:21;10.70;99.90
22139;DHT22;25815;52.582;13.408;2023-11-19T15:10:47;10.70;99.90
22139;DHT22;25815;52.582;13.408;2023-11-19T15:13:12;10.60;99.90
22139;DHT22;25815;52.582;13.408;2023-11-19T15:15:37;10.60;99.90
22139;DHT22;25815;52.582;13.408;2023-11-19T15:18:04;10.60;99.90
22139;DHT22;25815;52.582;13.408;2023-11-19T15:20:29;10.60;99.90
22139;DHT22;25815;52.582;13.408;2023-11-19T15:22:56;10.60;99.90
22139;DHT22;25815;52.582;13.408;2023-11-19T15:25:22;10.60;99.90
22139;DHT22;25815;52.582;13.408;2023-11-19T15:27:49;10.60;99.90
22139;DHT22;25815;52.582;13.408;2023-11-19T15:30:15;10.60;99.90
22139;DHT22;25815;52.582;13.408;2023-11-19T15:32:44;10.60;99.90
22139;DHT22;25815;52.582;13.408;2023-11-19T15:35:09;10.60;99.90
22139;DHT22;25815;52.582;13.408;2023-11-19T15:37:38;10.60;99.90
22139;DHT22;25815;52.582;13.408;2023-11-19T15:40:09;10.70;99.90
22139;DHT22;25815;52.582;13.408;2023-11-19T15:42:35;10.60;99.90
22139;DHT22;25815;52.582;13.408;2023-11-19T15:45:00;10.70;99.90
22139;DHT22;25815;52.582;13.408;2023-11-19T15:47:29;10.70;99.90
22139;DHT22;25815;52.582;13.408;2023-11-19T15:49:55;10.60;99.90
22139;DHT22;25815;52.582;13.408;2023-11-19T15:52:20;10.70;99.90
22139;DHT22;25815;52.582;13.408;2023-11-19T15:54:46;10.60;99.90
22139;DHT22;25815;52.582;13.408;2023-11-19T15:57:13;10.60;99.90
22139;DHT22;25815;52.582;13.408;2023-11-19T15:59:38;10.60;99.90
22139;DHT22;25815;52.582;13.408;2023-11-19T16:04:30;10.50;99.90
22139;DHT22;25815;52.582;13.408;2023-11-19T16:06:55;10.50;99.90
22139;DHT22;25815;52.582;13.408;2023-11-19T16:09:21;10.50;99.90